createdAt,value
2018-03-28T00:01:37.690Z,0.00
2018-03-28T00:02:37.649Z,0.00
2018-03-28T00:04:31.321Z,0.00
2018-03-28T00:05:31.284Z,0.00
2018-03-28T00:07:25.224Z,0.00
2018-03-28T00:08:24.908Z,0.00
2018-03-28T00:10:19.342Z,0.00
2018-03-28T00:11:18.550Z,0.00
2018-03-28T00:13:12.204Z,0.00
2018-03-28T00:14:12.182Z,0.00
2018-03-28T00:16:05.960Z,0.00
2018-03-28T00:17:05.929Z,0.00
2018-03-28T00:18:59.703Z,0.00
2018-03-28T00:19:59.645Z,0.00
2018-03-28T00:21:53.290Z,0.00
2018-03-28T00:22:53.248Z,0.00
2018-03-28T00:24:46.934Z,0.00
2018-03-28T00:25:46.889Z,0.00
2018-03-28T00:27:41.563Z,0.00
2018-03-28T00:28:41.548Z,0.00
2018-03-28T00:30:35.150Z,0.00
2018-03-28T00:31:35.147Z,0.00
2018-03-28T00:33:28.694Z,0.00
2018-03-28T00:34:28.659Z,0.00
2018-03-28T00:36:23.094Z,0.00
2018-03-28T00:37:22.164Z,0.00
2018-03-28T00:39:15.863Z,0.00
2018-03-28T00:40:15.822Z,0.00
2018-03-28T00:42:09.561Z,0.00
2018-03-28T00:43:09.534Z,0.00
2018-03-28T00:45:03.194Z,0.00
2018-03-28T00:46:03.150Z,0.00
2018-03-28T00:47:56.775Z,0.00
2018-03-28T00:48:56.725Z,0.00
2018-03-28T00:50:50.366Z,0.00
2018-03-28T00:51:50.326Z,0.00
2018-03-28T00:53:43.943Z,0.00
2018-03-28T00:54:43.917Z,0.00
2018-03-28T00:56:37.539Z,0.00
2018-03-28T00:57:37.500Z,0.00
2018-03-28T00:59:31.933Z,0.00
2018-03-28T01:00:31.129Z,0.00
2018-03-28T01:02:24.649Z,0.00
2018-03-28T01:03:24.633Z,0.00
2018-03-28T01:05:19.826Z,0.00
2018-03-28T01:06:19.779Z,0.00
2018-03-28T01:08:13.390Z,0.00
2018-03-28T01:09:13.386Z,0.00
2018-03-28T01:11:07.816Z,0.00
2018-03-28T01:12:06.904Z,0.00
2018-03-28T01:14:00.380Z,0.00
2018-03-28T01:15:00.365Z,0.00
2018-03-28T01:16:54.045Z,0.00
2018-03-28T01:17:53.996Z,0.00
2018-03-28T01:19:47.641Z,0.00
2018-03-28T01:20:47.604Z,0.00
2018-03-28T01:22:41.214Z,0.00
2018-03-28T01:23:41.200Z,0.00
2018-03-28T01:25:35.633Z,0.00
2018-03-28T01:26:34.767Z,0.00
2018-03-28T01:28:29.192Z,0.00
2018-03-28T01:29:28.397Z,0.00
2018-03-28T01:31:22.031Z,0.00
2018-03-28T01:32:21.991Z,0.00
2018-03-28T01:34:15.496Z,0.00
2018-03-28T01:35:15.486Z,0.00
2018-03-28T01:37:09.070Z,0.00
2018-03-28T01:38:09.029Z,0.00
2018-03-28T01:40:02.704Z,0.00
2018-03-28T01:41:02.664Z,0.00
2018-03-28T01:42:57.094Z,0.00
2018-03-28T01:43:56.362Z,0.00
2018-03-28T01:45:49.912Z,0.00
2018-03-28T01:46:49.858Z,0.00
2018-03-28T01:48:44.272Z,0.00
2018-03-28T01:49:43.564Z,0.00
2018-03-28T01:51:37.192Z,0.00
2018-03-28T01:52:37.140Z,0.00
2018-03-28T01:54:30.879Z,0.00
2018-03-28T01:55:30.845Z,0.00
2018-03-28T01:57:24.539Z,0.00
2018-03-28T01:58:24.517Z,0.00
2018-03-28T01:59:24.503Z,0.00
2018-03-28T02:00:24.497Z,0.00
2018-03-28T02:01:24.490Z,0.00
2018-03-28T02:02:24.474Z,0.00
2018-03-28T02:03:24.466Z,0.00
2018-03-28T02:04:24.456Z,0.00
2018-03-28T02:05:24.445Z,0.00
2018-03-28T02:06:24.437Z,0.00
2018-03-28T02:07:24.426Z,0.00
2018-03-28T02:08:24.417Z,0.00
2018-03-28T02:09:24.404Z,0.00
2018-03-28T02:10:24.396Z,0.00
2018-03-28T02:11:24.385Z,0.00
2018-03-28T02:12:24.380Z,0.00
2018-03-28T02:13:24.369Z,0.00
2018-03-28T02:14:24.362Z,0.00
2018-03-28T02:15:24.349Z,0.00
2018-03-28T02:16:24.336Z,0.00
2018-03-28T02:17:24.333Z,0.00
2018-03-28T02:18:24.323Z,0.00
2018-03-28T02:19:24.311Z,0.00
2018-03-28T02:20:24.301Z,0.00
2018-03-28T02:21:24.289Z,0.00
2018-03-28T02:22:24.283Z,0.00
2018-03-28T02:23:24.274Z,0.00
2018-03-28T02:24:24.263Z,0.00
2018-03-28T02:25:24.254Z,0.00
2018-03-28T02:26:24.243Z,0.00
2018-03-28T02:27:24.229Z,0.00
2018-03-28T02:28:24.223Z,0.00
2018-03-28T02:29:24.212Z,0.00
2018-03-28T02:30:24.209Z,0.00
2018-03-28T02:31:24.195Z,0.00
2018-03-28T02:32:24.187Z,0.00
2018-03-28T02:33:24.176Z,0.00
2018-03-28T02:34:24.165Z,0.00
2018-03-28T02:35:24.155Z,0.00
2018-03-28T02:36:24.149Z,0.00
2018-03-28T02:37:24.138Z,0.00
2018-03-28T02:38:24.130Z,0.00
2018-03-28T02:39:24.127Z,0.00
2018-03-28T02:40:24.105Z,0.00
2018-03-28T02:41:24.094Z,0.00
2018-03-28T02:42:24.086Z,0.00
2018-03-28T02:43:24.075Z,0.00
2018-03-28T02:44:24.070Z,0.00
2018-03-28T02:45:24.065Z,0.00
2018-03-28T02:46:24.052Z,0.00
2018-03-28T02:47:24.043Z,0.00
2018-03-28T02:48:24.045Z,0.00
2018-03-28T02:49:24.019Z,0.00
2018-03-28T02:50:24.030Z,0.00
2018-03-28T02:51:24.004Z,0.00
2018-03-28T02:52:23.994Z,0.00
2018-03-28T02:53:23.992Z,0.00
2018-03-28T02:54:23.977Z,0.00
2018-03-28T02:55:23.978Z,0.00
2018-03-28T02:56:23.956Z,0.00
2018-03-28T02:57:23.944Z,0.00
2018-03-28T02:58:23.935Z,0.00
2018-03-28T02:59:23.929Z,0.00
2018-03-28T03:00:23.919Z,0.00
2018-03-28T03:01:23.909Z,0.00
2018-03-28T03:02:23.898Z,0.00
2018-03-28T03:03:23.886Z,0.00
2018-03-28T03:04:23.876Z,0.00
2018-03-28T03:05:23.880Z,0.00
2018-03-28T03:06:23.862Z,0.00
2018-03-28T03:07:23.851Z,0.00
2018-03-28T03:08:23.917Z,0.00
2018-03-28T03:09:23.828Z,0.00
2018-03-28T03:10:23.818Z,0.00
2018-03-28T03:11:23.811Z,0.00
2018-03-28T03:12:23.801Z,0.00
2018-03-28T03:13:23.797Z,0.00
2018-03-28T03:14:23.787Z,0.00
2018-03-28T03:15:23.773Z,0.00
2018-03-28T03:16:23.766Z,0.00
2018-03-28T03:17:23.754Z,0.00
2018-03-28T03:18:23.747Z,0.00
2018-03-28T03:19:23.740Z,0.00
2018-03-28T03:20:23.728Z,0.00
2018-03-28T03:21:23.719Z,0.00
2018-03-28T03:22:23.709Z,0.00
2018-03-28T03:23:23.699Z,0.00
2018-03-28T03:24:23.687Z,0.00
2018-03-28T03:25:23.679Z,0.00
2018-03-28T03:26:23.671Z,0.00
2018-03-28T03:27:23.660Z,0.00
2018-03-28T03:28:23.657Z,0.00
2018-03-28T03:29:23.642Z,0.00
2018-03-28T03:30:23.629Z,0.00
2018-03-28T03:31:23.633Z,0.00
2018-03-28T03:32:23.610Z,0.00
2018-03-28T03:33:23.604Z,0.00
2018-03-28T03:34:23.596Z,0.00
2018-03-28T03:35:23.587Z,0.00
2018-03-28T03:36:23.573Z,0.00
2018-03-28T03:37:23.568Z,0.00
2018-03-28T03:38:23.558Z,0.00
2018-03-28T03:39:23.548Z,0.00
2018-03-28T03:40:23.536Z,0.00
2018-03-28T03:41:23.524Z,0.00
2018-03-28T03:42:23.522Z,0.00
2018-03-28T03:43:23.512Z,0.00
2018-03-28T03:44:23.496Z,0.00
2018-03-28T03:45:23.488Z,0.00
2018-03-28T03:46:23.478Z,0.00
2018-03-28T03:47:23.473Z,0.00
2018-03-28T03:48:23.458Z,0.00
2018-03-28T03:49:23.454Z,0.00
2018-03-28T03:50:23.442Z,0.00
2018-03-28T03:51:23.432Z,0.00
2018-03-28T03:52:23.428Z,0.00
2018-03-28T03:53:23.415Z,0.00
2018-03-28T03:54:23.406Z,0.00
2018-03-28T03:55:23.400Z,0.00
2018-03-28T03:56:23.388Z,0.00
2018-03-28T03:57:23.373Z,0.00
2018-03-28T03:58:23.366Z,0.00
2018-03-28T03:59:23.355Z,0.00
2018-03-28T04:00:23.348Z,0.00
2018-03-28T04:01:23.341Z,0.00
2018-03-28T04:02:23.332Z,0.00
2018-03-28T04:03:23.321Z,0.00
2018-03-28T04:04:23.308Z,0.00
2018-03-28T04:05:23.314Z,0.00
2018-03-28T04:06:23.295Z,0.00
2018-03-28T04:07:23.283Z,0.00
2018-03-28T04:08:23.274Z,0.00
2018-03-28T04:09:23.264Z,0.00
2018-03-28T04:10:23.255Z,0.00
2018-03-28T04:11:23.244Z,0.00
2018-03-28T04:12:23.259Z,0.00
2018-03-28T04:13:23.228Z,0.00
2018-03-28T04:14:23.218Z,0.00
2018-03-28T04:15:23.209Z,0.00
2018-03-28T04:16:23.197Z,0.00
2018-03-28T04:17:23.193Z,0.00
2018-03-28T04:18:23.178Z,0.00
2018-03-28T04:19:23.174Z,0.00
2018-03-28T04:20:23.162Z,0.00
2018-03-28T04:21:23.156Z,0.00
2018-03-28T04:22:23.144Z,0.00
2018-03-28T04:23:23.134Z,0.00
2018-03-28T04:24:23.128Z,0.00
2018-03-28T04:25:23.114Z,0.00
2018-03-28T04:26:23.104Z,0.00
2018-03-28T04:27:23.095Z,0.00
2018-03-28T04:28:23.087Z,0.00
2018-03-28T04:29:23.081Z,0.00
2018-03-28T04:30:23.066Z,0.00
2018-03-28T04:31:23.057Z,0.00
2018-03-28T04:32:23.048Z,0.00
2018-03-28T04:33:23.038Z,0.00
2018-03-28T04:34:23.032Z,0.00
2018-03-28T04:35:23.023Z,0.00
2018-03-28T04:36:23.015Z,0.00
2018-03-28T04:37:23.002Z,0.00
2018-03-28T04:38:22.990Z,0.00
2018-03-28T04:39:22.981Z,0.00
2018-03-28T04:40:22.977Z,0.00
2018-03-28T04:41:22.970Z,0.00
2018-03-28T04:42:22.967Z,0.00
2018-03-28T04:43:22.946Z,0.00
2018-03-28T04:44:22.933Z,0.00
2018-03-28T04:45:22.924Z,0.00
2018-03-28T04:46:22.917Z,0.00
2018-03-28T04:47:22.908Z,0.00
2018-03-28T04:48:22.903Z,0.00
2018-03-28T04:49:22.893Z,0.00
2018-03-28T04:50:22.881Z,0.00
2018-03-28T04:51:22.884Z,0.00
2018-03-28T04:52:22.863Z,0.00
2018-03-28T04:53:22.854Z,0.00
2018-03-28T04:54:22.852Z,0.00
2018-03-28T04:55:22.836Z,0.00
2018-03-28T04:56:22.826Z,0.00
2018-03-28T04:57:22.813Z,0.00
2018-03-28T04:58:22.813Z,0.00
2018-03-28T04:59:22.794Z,0.00
2018-03-28T05:00:22.790Z,0.00
2018-03-28T05:01:22.780Z,0.00
2018-03-28T05:02:22.771Z,0.00
2018-03-28T05:03:22.762Z,0.00
2018-03-28T05:04:22.753Z,0.00
2018-03-28T05:05:22.743Z,0.00
2018-03-28T05:06:22.731Z,0.00
2018-03-28T05:07:22.727Z,0.00
2018-03-28T05:08:22.717Z,0.00
2018-03-28T05:09:22.706Z,0.00
2018-03-28T05:10:22.694Z,5.63
2018-03-28T05:11:22.684Z,5.63
2018-03-28T05:12:22.673Z,5.63
2018-03-28T05:13:22.665Z,5.63
2018-03-28T05:14:22.660Z,5.63
2018-03-28T05:15:22.654Z,5.63
2018-03-28T05:16:22.638Z,5.63
2018-03-28T05:17:22.631Z,5.63
2018-03-28T05:18:22.619Z,5.63
2018-03-28T05:19:22.608Z,5.63
2018-03-28T05:20:22.599Z,5.63
2018-03-28T05:21:22.595Z,5.63
2018-03-28T05:22:22.584Z,5.63
2018-03-28T05:23:22.574Z,5.63
2018-03-28T05:24:22.565Z,5.63
2018-03-28T05:25:22.554Z,5.63
2018-03-28T05:26:22.549Z,5.63
2018-03-28T05:27:22.538Z,5.63
2018-03-28T05:28:22.529Z,5.63
2018-03-28T05:29:22.518Z,11.25
2018-03-28T05:30:22.510Z,11.25
2018-03-28T05:31:22.502Z,5.63
2018-03-28T05:32:22.487Z,5.63
2018-03-28T05:33:22.484Z,5.63
2018-03-28T05:34:22.470Z,5.63
2018-03-28T05:35:22.463Z,11.25
2018-03-28T05:36:22.453Z,11.25
2018-03-28T05:37:22.445Z,11.25
2018-03-28T05:38:22.438Z,16.88
2018-03-28T05:39:22.422Z,16.88
2018-03-28T05:40:22.420Z,16.88
2018-03-28T05:41:22.409Z,22.50
2018-03-28T05:42:22.398Z,22.50
2018-03-28T05:43:22.389Z,28.13
2018-03-28T05:44:22.377Z,22.50
2018-03-28T05:45:22.368Z,22.50
2018-03-28T05:46:22.360Z,28.13
2018-03-28T05:47:22.347Z,28.13
2018-03-28T05:48:22.343Z,33.75
2018-03-28T05:49:22.331Z,28.13
2018-03-28T05:50:22.353Z,33.75
2018-03-28T05:51:22.316Z,33.75
2018-03-28T05:52:22.303Z,45.00
2018-03-28T05:53:22.293Z,50.63
2018-03-28T05:54:22.285Z,50.63
2018-03-28T05:55:22.277Z,50.63
2018-03-28T05:56:22.267Z,50.63
2018-03-28T05:57:22.260Z,50.63
2018-03-28T05:58:22.252Z,50.63
2018-03-28T05:59:22.240Z,50.63
2018-03-28T06:00:22.259Z,45.00
2018-03-28T06:01:22.226Z,33.75
2018-03-28T06:02:22.213Z,33.75
2018-03-28T06:03:22.204Z,33.75
2018-03-28T06:04:22.198Z,33.75
2018-03-28T06:05:22.187Z,28.13
2018-03-28T06:06:22.176Z,33.75
2018-03-28T06:07:22.218Z,33.75
2018-03-28T06:08:22.156Z,33.75
2018-03-28T06:09:22.145Z,39.38
2018-03-28T06:10:22.141Z,39.38
2018-03-28T06:11:22.131Z,39.38
2018-03-28T06:12:22.123Z,39.38
2018-03-28T06:13:22.110Z,45.00
2018-03-28T06:14:22.101Z,50.63
2018-03-28T06:15:22.092Z,61.88
2018-03-28T06:16:22.081Z,61.88
2018-03-28T06:17:22.079Z,61.88
2018-03-28T06:18:22.073Z,61.88
2018-03-28T06:19:22.056Z,67.50
2018-03-28T06:20:22.045Z,67.50
2018-03-28T06:21:22.034Z,56.25
2018-03-28T06:22:22.026Z,50.63
2018-03-28T06:23:22.020Z,50.63
2018-03-28T06:24:22.013Z,50.63
2018-03-28T06:25:22.002Z,56.25
2018-03-28T06:26:21.991Z,56.25
2018-03-28T06:27:21.977Z,61.88
2018-03-28T06:28:21.978Z,61.88
2018-03-28T06:29:21.966Z,67.50
2018-03-28T06:30:21.956Z,73.13
2018-03-28T06:31:21.946Z,78.75
2018-03-28T06:32:21.938Z,78.75
2018-03-28T06:33:21.928Z,78.75
2018-03-28T06:34:21.916Z,84.38
2018-03-28T06:35:21.906Z,90.00
2018-03-28T06:36:21.904Z,95.63
2018-03-28T06:37:21.895Z,106.88
2018-03-28T06:38:21.882Z,106.88
2018-03-28T06:39:21.877Z,112.50
2018-03-28T06:40:21.861Z,112.50
2018-03-28T06:41:21.852Z,112.50
2018-03-28T06:42:21.846Z,123.75
2018-03-28T06:43:21.836Z,129.38
2018-03-28T06:44:21.834Z,140.63
2018-03-28T06:45:21.824Z,135.00
2018-03-28T06:46:21.811Z,135.00
2018-03-28T06:47:21.809Z,135.00
2018-03-28T06:48:21.786Z,129.38
2018-03-28T06:49:21.782Z,112.50
2018-03-28T06:50:21.779Z,112.50
2018-03-28T06:51:21.763Z,95.63
2018-03-28T06:52:21.756Z,95.63
2018-03-28T06:53:21.747Z,95.63
2018-03-28T06:54:21.732Z,84.38
2018-03-28T06:55:21.723Z,78.75
2018-03-28T06:56:21.718Z,84.38
2018-03-28T06:57:21.709Z,90.00
2018-03-28T06:58:21.700Z,84.38
2018-03-28T06:59:21.690Z,95.63
2018-03-28T07:00:21.681Z,112.50
2018-03-28T07:01:21.669Z,123.75
2018-03-28T07:02:21.660Z,135.00
2018-03-28T07:03:21.653Z,129.38
2018-03-28T07:04:21.643Z,123.75
2018-03-28T07:05:21.634Z,135.00
2018-03-28T07:06:21.624Z,135.00
2018-03-28T07:07:21.618Z,157.50
2018-03-28T07:08:21.604Z,140.63
2018-03-28T07:09:21.596Z,146.25
2018-03-28T07:10:21.588Z,180.00
2018-03-28T07:11:21.583Z,213.75
2018-03-28T07:12:21.569Z,213.75
2018-03-28T07:13:21.561Z,208.13
2018-03-28T07:14:21.552Z,213.75
2018-03-28T07:15:21.540Z,219.38
2018-03-28T07:16:21.529Z,219.38
2018-03-28T07:17:21.522Z,241.88
2018-03-28T07:18:21.512Z,225.00
2018-03-28T07:19:21.507Z,225.00
2018-03-28T07:20:21.499Z,230.63
2018-03-28T07:21:21.489Z,213.75
2018-03-28T07:22:21.483Z,219.38
2018-03-28T07:23:21.466Z,225.00
2018-03-28T07:24:21.461Z,225.00
2018-03-28T07:25:21.453Z,219.38
2018-03-28T07:26:21.445Z,219.38
2018-03-28T07:27:21.434Z,219.38
2018-03-28T07:28:21.426Z,213.75
2018-03-28T07:29:21.414Z,196.88
2018-03-28T07:30:21.411Z,185.63
2018-03-28T07:31:21.396Z,208.13
2018-03-28T07:32:21.390Z,219.38
2018-03-28T07:33:21.381Z,281.25
2018-03-28T07:34:21.377Z,264.38
2018-03-28T07:35:21.364Z,286.88
2018-03-28T07:36:21.348Z,258.75
2018-03-28T07:37:21.342Z,230.63
2018-03-28T07:38:21.334Z,202.50
2018-03-28T07:39:21.322Z,191.25
2018-03-28T07:40:21.319Z,208.13
2018-03-28T07:41:21.311Z,225.00
2018-03-28T07:42:21.303Z,185.63
2018-03-28T07:43:21.291Z,202.50
2018-03-28T07:44:21.282Z,230.63
2018-03-28T07:45:21.276Z,258.75
2018-03-28T07:46:21.264Z,326.25
2018-03-28T07:47:21.256Z,343.13
2018-03-28T07:48:21.244Z,320.63
2018-03-28T07:49:21.238Z,292.50
2018-03-28T07:50:21.228Z,309.38
2018-03-28T07:51:21.218Z,326.25
2018-03-28T07:52:21.208Z,320.63
2018-03-28T07:53:21.207Z,320.63
2018-03-28T07:54:21.193Z,275.63
2018-03-28T07:55:21.184Z,258.75
2018-03-28T07:56:21.180Z,275.63
2018-03-28T07:57:21.163Z,191.25
2018-03-28T07:58:21.155Z,168.75
2018-03-28T07:59:21.144Z,157.50
2018-03-28T08:00:21.136Z,140.63
2018-03-28T08:01:21.133Z,168.75
2018-03-28T08:02:21.124Z,213.75
2018-03-28T08:03:21.110Z,281.25
2018-03-28T08:04:21.101Z,286.88
2018-03-28T08:05:21.096Z,320.63
2018-03-28T08:06:21.083Z,450.00
2018-03-28T08:07:21.079Z,517.50
2018-03-28T08:08:21.068Z,528.75
2018-03-28T08:09:21.060Z,641.25
2018-03-28T08:10:21.063Z,765.00
2018-03-28T08:11:21.040Z,680.63
2018-03-28T08:12:21.036Z,658.13
2018-03-28T08:13:21.030Z,624.38
2018-03-28T08:14:21.017Z,540.00
2018-03-28T08:15:21.008Z,551.25
2018-03-28T08:16:20.998Z,427.50
2018-03-28T08:17:20.990Z,455.63
2018-03-28T08:18:20.980Z,466.88
2018-03-28T08:19:20.973Z,601.88
2018-03-28T08:20:20.962Z,725.63
2018-03-28T08:21:20.954Z,753.75
2018-03-28T08:22:20.948Z,759.38
2018-03-28T08:23:20.936Z,641.25
2018-03-28T08:24:20.931Z,630.00
2018-03-28T08:25:20.924Z,742.50
2018-03-28T08:26:20.918Z,793.13
2018-03-28T08:27:20.907Z,776.25
2018-03-28T08:28:20.898Z,781.88
2018-03-28T08:29:20.886Z,770.63
2018-03-28T08:30:20.882Z,675.00
2018-03-28T08:31:20.868Z,562.50
2018-03-28T08:32:20.860Z,511.88
2018-03-28T08:33:20.860Z,506.25
2018-03-28T08:34:20.845Z,534.38
2018-03-28T08:35:20.837Z,545.63
2018-03-28T08:36:20.830Z,556.88
2018-03-28T08:37:20.820Z,534.38
2018-03-28T08:38:20.814Z,483.75
2018-03-28T08:39:20.808Z,455.63
2018-03-28T08:40:20.803Z,472.50
2018-03-28T08:41:20.791Z,675.00
2018-03-28T08:42:20.780Z,663.75
2018-03-28T08:43:20.773Z,759.38
2018-03-28T08:44:20.768Z,1068.75
2018-03-28T08:45:20.759Z,1215.00
2018-03-28T08:46:20.779Z,1411.88
2018-03-28T08:47:20.745Z,1496.25
2018-03-28T08:48:20.764Z,1676.25
2018-03-28T08:49:20.726Z,1771.88
2018-03-28T08:50:20.718Z,1698.75
2018-03-28T08:51:20.708Z,2064.38
2018-03-28T08:52:20.703Z,2458.13
2018-03-28T08:53:20.696Z,2154.38
2018-03-28T08:54:20.698Z,1996.88
2018-03-28T08:55:20.678Z,1991.25
2018-03-28T08:56:20.674Z,2176.88
2018-03-28T08:57:20.665Z,1524.38
2018-03-28T08:58:20.661Z,1569.38
2018-03-28T08:59:20.653Z,1305.00
2018-03-28T09:00:20.644Z,1451.25
2018-03-28T09:01:20.636Z,1535.63
2018-03-28T09:02:20.629Z,1451.25
2018-03-28T09:03:20.619Z,1524.38
2018-03-28T09:04:20.622Z,1625.63
2018-03-28T09:05:20.610Z,1535.63
2018-03-28T09:06:20.603Z,1479.38
2018-03-28T09:07:20.596Z,1378.13
2018-03-28T09:08:20.587Z,1265.63
2018-03-28T09:09:20.578Z,1130.63
2018-03-28T09:10:20.572Z,1029.38
2018-03-28T09:11:20.565Z,990.00
2018-03-28T09:12:20.568Z,1051.88
2018-03-28T09:13:20.554Z,1085.63
2018-03-28T09:14:20.551Z,1096.88
2018-03-28T09:15:20.547Z,1113.75
2018-03-28T09:16:20.536Z,1153.13
2018-03-28T09:17:20.526Z,1119.38
2018-03-28T09:18:20.523Z,1085.63
2018-03-28T09:19:20.522Z,1029.38
2018-03-28T09:20:20.509Z,900.00
2018-03-28T09:21:20.498Z,793.13
2018-03-28T09:22:20.492Z,826.88
2018-03-28T09:23:20.483Z,922.50
2018-03-28T09:24:20.482Z,1006.88
2018-03-28T09:25:20.476Z,1035.00
2018-03-28T09:26:20.468Z,995.63
2018-03-28T09:27:20.455Z,950.63
2018-03-28T09:28:20.450Z,905.63
2018-03-28T09:29:20.444Z,871.88
2018-03-28T09:30:20.441Z,871.88
2018-03-28T09:31:20.437Z,866.25
2018-03-28T09:32:20.423Z,883.13
2018-03-28T09:33:20.423Z,916.88
2018-03-28T09:34:20.409Z,939.38
2018-03-28T09:35:20.404Z,1018.13
2018-03-28T09:36:20.397Z,1085.63
2018-03-28T09:37:20.392Z,1063.13
2018-03-28T09:38:20.385Z,1029.38
2018-03-28T09:39:20.379Z,1001.25
2018-03-28T09:40:20.377Z,950.63
2018-03-28T09:41:20.363Z,866.25
2018-03-28T09:42:20.360Z,810.00
2018-03-28T09:43:20.349Z,888.75
2018-03-28T09:44:20.347Z,1023.75
2018-03-28T09:45:20.339Z,1141.88
2018-03-28T09:46:20.333Z,1260.00
2018-03-28T09:47:20.318Z,1175.63
2018-03-28T09:48:20.314Z,1147.50
2018-03-28T09:49:20.304Z,1220.63
2018-03-28T09:50:20.307Z,1265.63
2018-03-28T09:51:20.294Z,1293.75
2018-03-28T09:52:20.291Z,1209.38
2018-03-28T09:53:20.277Z,1248.75
2018-03-28T09:54:20.276Z,1271.25
2018-03-28T09:55:20.265Z,1288.13
2018-03-28T09:56:20.266Z,1271.25
2018-03-28T09:57:20.254Z,1310.63
2018-03-28T09:58:20.246Z,1383.75
2018-03-28T09:59:20.249Z,1417.50
2018-03-28T10:00:20.231Z,1456.88
2018-03-28T10:01:20.224Z,1400.63
2018-03-28T10:02:20.217Z,1333.13
2018-03-28T10:03:20.265Z,1170.00
2018-03-28T10:04:20.203Z,1085.63
2018-03-28T10:05:20.201Z,1046.25
2018-03-28T10:06:20.190Z,1023.75
2018-03-28T10:07:20.182Z,1006.88
2018-03-28T10:08:20.182Z,973.13
2018-03-28T10:09:20.174Z,945.00
2018-03-28T10:10:20.167Z,933.75
2018-03-28T10:11:20.160Z,883.13
2018-03-28T10:12:20.150Z,798.75
2018-03-28T10:13:20.141Z,804.38
2018-03-28T10:14:20.137Z,815.63
2018-03-28T10:15:20.131Z,832.50
2018-03-28T10:16:20.125Z,866.25
2018-03-28T10:17:20.120Z,900.00
2018-03-28T10:18:20.113Z,916.88
2018-03-28T10:19:20.134Z,933.75
2018-03-28T10:20:20.095Z,933.75
2018-03-28T10:21:20.091Z,911.25
2018-03-28T10:22:20.090Z,945.00
2018-03-28T10:23:20.077Z,1012.50
2018-03-28T10:24:20.072Z,1001.25
2018-03-28T10:25:20.063Z,911.25
2018-03-28T10:26:20.056Z,826.88
2018-03-28T10:27:20.047Z,748.13
2018-03-28T10:28:20.039Z,652.50
2018-03-28T10:29:20.037Z,613.13
2018-03-28T10:30:20.033Z,658.13
2018-03-28T10:31:20.024Z,669.38
2018-03-28T10:32:20.016Z,736.88
2018-03-28T10:33:20.006Z,776.25
2018-03-28T10:34:20.000Z,776.25
2018-03-28T10:35:19.999Z,776.25
2018-03-28T10:36:19.993Z,765.00
2018-03-28T10:37:19.982Z,770.63
2018-03-28T10:38:19.976Z,804.38
2018-03-28T10:39:19.966Z,838.13
2018-03-28T10:40:19.964Z,849.38
2018-03-28T10:41:19.952Z,821.25
2018-03-28T10:42:19.948Z,826.88
2018-03-28T10:43:19.941Z,871.88
2018-03-28T10:44:19.932Z,888.75
2018-03-28T10:45:19.926Z,815.63
2018-03-28T10:46:19.921Z,787.50
2018-03-28T10:47:19.931Z,798.75
2018-03-28T10:48:19.905Z,855.00
2018-03-28T10:49:19.899Z,877.50
2018-03-28T10:50:19.892Z,855.00
2018-03-28T10:51:19.883Z,838.13
2018-03-28T10:52:19.876Z,843.75
2018-03-28T10:53:19.865Z,855.00
2018-03-28T10:54:19.861Z,832.50
2018-03-28T10:55:19.856Z,787.50
2018-03-28T10:56:19.849Z,742.50
2018-03-28T10:57:19.842Z,759.38
2018-03-28T10:58:19.836Z,776.25
2018-03-28T10:59:19.830Z,765.00
2018-03-28T11:00:19.818Z,748.13
2018-03-28T11:01:19.819Z,765.00
2018-03-28T11:02:19.806Z,753.75
2018-03-28T11:03:19.823Z,759.38
2018-03-28T11:04:19.796Z,776.25
2018-03-28T11:05:19.786Z,770.63
2018-03-28T11:06:19.778Z,753.75
2018-03-28T11:07:19.776Z,759.38
2018-03-28T11:08:19.769Z,765.00
2018-03-28T11:09:19.759Z,753.75
2018-03-28T11:10:19.759Z,725.63
2018-03-28T11:11:19.746Z,714.38
2018-03-28T11:12:19.750Z,725.63
2018-03-28T11:13:19.728Z,736.88
2018-03-28T11:14:19.722Z,736.88
2018-03-28T11:15:19.718Z,720.00
2018-03-28T11:16:19.715Z,686.25
2018-03-28T11:17:19.709Z,663.75
2018-03-28T11:18:19.692Z,635.63
2018-03-28T11:19:19.685Z,613.13
2018-03-28T11:20:19.680Z,607.50
2018-03-28T11:21:19.673Z,585.00
2018-03-28T11:22:19.672Z,596.25
2018-03-28T11:23:19.663Z,630.00
2018-03-28T11:24:19.657Z,652.50
2018-03-28T11:25:19.643Z,658.13
2018-03-28T11:26:19.635Z,641.25
2018-03-28T11:27:19.636Z,624.38
2018-03-28T11:28:19.629Z,613.13
2018-03-28T11:29:19.616Z,601.88
2018-03-28T11:30:19.610Z,590.63
2018-03-28T11:31:19.617Z,579.38
2018-03-28T11:32:19.593Z,590.63
2018-03-28T11:33:19.588Z,635.63
2018-03-28T11:34:19.604Z,663.75
2018-03-28T11:35:19.578Z,680.63
2018-03-28T11:36:19.570Z,697.50
2018-03-28T11:37:19.563Z,720.00
2018-03-28T11:38:19.558Z,731.25
2018-03-28T11:39:19.545Z,714.38
2018-03-28T11:40:19.538Z,708.75
2018-03-28T11:41:19.533Z,703.13
2018-03-28T11:42:19.527Z,708.75
2018-03-28T11:43:19.521Z,720.00
2018-03-28T11:44:19.511Z,708.75
2018-03-28T11:45:19.503Z,669.38
2018-03-28T11:46:19.508Z,624.38
2018-03-28T11:47:19.487Z,601.88
2018-03-28T11:48:19.482Z,590.63
2018-03-28T11:49:19.481Z,590.63
2018-03-28T11:50:19.469Z,585.00
2018-03-28T11:51:19.456Z,579.38
2018-03-28T11:52:19.456Z,568.13
2018-03-28T11:53:19.442Z,562.50
2018-03-28T11:54:19.435Z,556.88
2018-03-28T11:55:19.432Z,568.13
2018-03-28T11:56:19.424Z,573.75
2018-03-28T11:57:19.423Z,562.50
2018-03-28T11:58:19.442Z,556.88
2018-03-28T11:59:19.402Z,551.25
2018-03-28T12:00:19.393Z,540.00
2018-03-28T12:01:19.390Z,528.75
2018-03-28T12:02:19.380Z,523.13
2018-03-28T12:03:19.372Z,511.88
2018-03-28T12:04:19.366Z,483.75
2018-03-28T12:05:19.362Z,438.75
2018-03-28T12:06:19.349Z,433.13
2018-03-28T12:07:19.345Z,421.88
2018-03-28T12:08:19.340Z,410.63
2018-03-28T12:09:19.327Z,399.38
2018-03-28T12:10:19.329Z,388.13
2018-03-28T12:11:19.309Z,376.88
2018-03-28T12:12:19.301Z,371.25
2018-03-28T12:13:19.346Z,371.25
2018-03-28T12:14:19.323Z,376.88
2018-03-28T12:15:19.565Z,382.50
2018-03-28T12:16:19.277Z,399.38
2018-03-28T12:17:19.270Z,433.13
2018-03-28T12:18:19.260Z,466.88
2018-03-28T12:19:19.251Z,528.75
2018-03-28T12:20:19.246Z,523.13
2018-03-28T12:21:19.240Z,551.25
2018-03-28T12:22:19.233Z,562.50
2018-03-28T12:23:19.224Z,585.00
2018-03-28T12:24:19.216Z,601.88
2018-03-28T12:25:19.207Z,601.88
2018-03-28T12:26:19.199Z,585.00
2018-03-28T12:27:19.191Z,562.50
2018-03-28T12:28:19.187Z,540.00
2018-03-28T12:29:19.176Z,511.88
2018-03-28T12:30:19.171Z,478.13
2018-03-28T12:31:19.165Z,461.25
2018-03-28T12:32:19.155Z,450.00
2018-03-28T12:33:19.149Z,455.63
2018-03-28T12:34:19.150Z,450.00
2018-03-28T12:35:19.134Z,444.38
2018-03-28T12:36:19.127Z,427.50
2018-03-28T12:37:19.118Z,421.88
2018-03-28T12:38:19.108Z,405.00
2018-03-28T12:39:19.102Z,399.38
2018-03-28T12:40:19.099Z,410.63
2018-03-28T12:41:19.089Z,421.88
2018-03-28T12:42:19.078Z,433.13
2018-03-28T12:43:19.073Z,405.00
2018-03-28T12:44:19.065Z,382.50
2018-03-28T12:45:19.053Z,382.50
2018-03-28T12:46:19.048Z,393.75
2018-03-28T12:47:19.051Z,393.75
2018-03-28T12:48:19.067Z,399.38
2018-03-28T12:49:19.026Z,399.38
2018-03-28T12:50:19.021Z,410.63
2018-03-28T12:51:19.008Z,410.63
2018-03-28T12:52:19.152Z,399.38
2018-03-28T12:53:18.994Z,393.75
2018-03-28T12:54:18.987Z,399.38
2018-03-28T12:55:18.982Z,405.00
2018-03-28T12:56:18.976Z,421.88
2018-03-28T12:57:18.965Z,433.13
2018-03-28T12:58:18.955Z,461.25
2018-03-28T12:59:18.945Z,483.75
2018-03-28T13:00:18.940Z,517.50
2018-03-28T13:01:18.932Z,506.25
2018-03-28T13:02:18.938Z,489.38
2018-03-28T13:03:18.918Z,489.38
2018-03-28T13:04:18.908Z,427.50
2018-03-28T13:05:18.927Z,393.75
2018-03-28T13:06:18.896Z,337.50
2018-03-28T13:07:18.887Z,303.75
2018-03-28T13:08:18.875Z,281.25
2018-03-28T13:09:18.889Z,275.63
2018-03-28T13:10:18.859Z,247.50
2018-03-28T13:11:18.851Z,230.63
2018-03-28T13:12:18.843Z,225.00
2018-03-28T13:13:18.836Z,230.63
2018-03-28T13:14:18.828Z,236.25
2018-03-28T13:15:18.819Z,247.50
2018-03-28T13:16:18.874Z,264.38
2018-03-28T13:17:18.806Z,258.75
2018-03-28T13:18:18.793Z,241.88
2018-03-28T13:19:18.786Z,225.00
2018-03-28T13:20:18.781Z,208.13
2018-03-28T13:21:18.774Z,196.88
2018-03-28T13:22:18.790Z,196.88
2018-03-28T13:23:18.778Z,191.25
2018-03-28T13:24:18.758Z,174.38